sensor_id;sensor_type;location;lat;lon;timestamp;P1;durP1;ratioP1;P2;durP2;ratioP2
36931;SDS011;22847;42.654;23.370;2023-11-22T00:00:44;46.60;;;22.60;;
36931;SDS011;22847;42.654;23.370;2023-11-22T00:03:10;36.03;;;20.40;;
36931;SDS011;22847;42.654;23.370;2023-11-22T00:05:36;38.72;;;21.23;;
36931;SDS011;22847;42.654;23.370;2023-11-22T00:08:01;44.47;;;21.48;;
36931;SDS011;22847;42.654;23.370;2023-11-22T00:10:27;43.60;;;20.90;;
36931;SDS011;22847;42.654;23.370;2023-11-22T00:12:53;41.30;;;21.42;;
36931;SDS011;22847;42.654;23.370;2023-11-22T00:15:18;37.65;;;21.05;;
36931;SDS011;22847;42.654;23.370;2023-11-22T00:17:44;43.63;;;20.55;;
36931;SDS011;22847;42.654;23.370;2023-11-22T00:20:10;44.88;;;20.67;;
36931;SDS011;22847;42.654;23.370;2023-11-22T00:22:36;36.40;;;20.55;;
36931;SDS011;22847;42.654;23.370;2023-11-22T00:25:02;43.88;;;21.90;;
36931;SDS011;22847;42.654;23.370;2023-11-22T00:27:28;44.08;;;21.10;;
36931;SDS011;22847;42.654;23.370;2023-11-22T00:29:57;38.75;;;20.77;;
36931;SDS011;22847;42.654;23.370;2023-11-22T00:32:23;37.67;;;20.30;;
36931;SDS011;22847;42.654;23.370;2023-11-22T00:34:49;41.85;;;20.00;;
36931;SDS011;22847;42.654;23.370;2023-11-22T00:37:14;37.08;;;20.27;;
36931;SDS011;22847;42.654;23.370;2023-11-22T00:39:40;36.53;;;19.98;;
36931;SDS011;22847;42.654;23.370;2023-11-22T00:42:07;39.78;;;19.67;;
36931;SDS011;22847;42.654;23.370;2023-11-22T00:44:52;34.83;;;18.77;;
36931;SDS011;22847;42.654;23.370;2023-11-22T00:47:18;38.95;;;19.95;;
36931;SDS011;22847;42.654;23.370;2023-11-22T00:49:44;38.58;;;19.50;;
36931;SDS011;22847;42.654;23.370;2023-11-22T00:52:09;40.80;;;19.35;;
36931;SDS011;22847;42.654;23.370;2023-11-22T00:54:35;38.75;;;19.55;;
36931;SDS011;22847;42.654;23.370;2023-11-22T00:57:00;36.63;;;19.67;;
36931;SDS011;22847;42.654;23.370;2023-11-22T00:59:26;40.53;;;19.73;;
36931;SDS011;22847;42.654;23.370;2023-11-22T01:01:51;35.60;;;18.73;;
36931;SDS011;22847;42.654;23.370;2023-11-22T01:04:17;37.63;;;19.80;;
36931;SDS011;22847;42.654;23.370;2023-11-22T01:06:42;34.25;;;18.83;;
36931;SDS011;22847;42.654;23.370;2023-11-22T01:09:08;37.50;;;18.38;;
36931;SDS011;22847;42.654;23.370;2023-11-22T01:11:34;43.45;;;19.08;;
36931;SDS011;22847;42.654;23.370;2023-11-22T01:14:00;33.53;;;18.77;;
36931;SDS011;22847;42.654;23.370;2023-11-22T01:16:25;32.35;;;17.73;;
36931;SDS011;22847;42.654;23.370;2023-11-22T01:18:51;39.13;;;19.17;;
36931;SDS011;22847;42.654;23.370;2023-11-22T01:21:17;33.75;;;17.83;;
36931;SDS011;22847;42.654;23.370;2023-11-22T01:23:44;41.50;;;18.88;;
36931;SDS011;22847;42.654;23.370;2023-11-22T01:26:10;36.92;;;19.38;;
36931;SDS011;22847;42.654;23.370;2023-11-22T01:28:37;35.78;;;19.25;;
36931;SDS011;22847;42.654;23.370;2023-11-22T01:31:02;41.00;;;18.80;;
36931;SDS011;22847;42.654;23.370;2023-11-22T01:33:28;32.90;;;17.77;;
36931;SDS011;22847;42.654;23.370;2023-11-22T01:35:54;36.63;;;19.42;;
36931;SDS011;22847;42.654;23.370;2023-11-22T01:38:19;35.92;;;18.20;;
36931;SDS011;22847;42.654;23.370;2023-11-22T01:40:45;34.92;;;17.63;;
36931;SDS011;22847;42.654;23.370;2023-11-22T01:43:16;35.08;;;17.67;;
36931;SDS011;22847;42.654;23.370;2023-11-22T01:45:43;34.92;;;17.80;;
36931;SDS011;22847;42.654;23.370;2023-11-22T01:48:09;31.90;;;17.55;;
36931;SDS011;22847;42.654;23.370;2023-11-22T01:50:38;32.33;;;16.98;;
36931;SDS011;22847;42.654;23.370;2023-11-22T01:53:14;31.02;;;17.67;;
36931;SDS011;22847;42.654;23.370;2023-11-22T01:55:43;32.47;;;17.13;;
36931;SDS011;22847;42.654;23.370;2023-11-22T01:58:11;31.52;;;16.98;;
36931;SDS011;22847;42.654;23.370;2023-11-22T02:00:49;39.20;;;18.15;;
36931;SDS011;22847;42.654;23.370;2023-11-22T02:03:16;33.75;;;16.60;;
36931;SDS011;22847;42.654;23.370;2023-11-22T02:05:42;31.58;;;16.77;;
36931;SDS011;22847;42.654;23.370;2023-11-22T02:08:11;32.78;;;17.92;;
36931;SDS011;22847;42.654;23.370;2023-11-22T02:10:37;33.90;;;17.70;;
36931;SDS011;22847;42.654;23.370;2023-11-22T02:13:03;37.83;;;18.38;;
36931;SDS011;22847;42.654;23.370;2023-11-22T02:15:35;36.55;;;17.45;;
36931;SDS011;22847;42.654;23.370;2023-11-22T02:18:04;35.03;;;17.35;;
36931;SDS011;22847;42.654;23.370;2023-11-22T02:20:30;33.78;;;17.60;;
36931;SDS011;22847;42.654;23.370;2023-11-22T02:22:56;35.35;;;18.33;;
36931;SDS011;22847;42.654;23.370;2023-11-22T02:25:22;36.28;;;18.13;;
36931;SDS011;22847;42.654;23.370;2023-11-22T02:27:47;33.85;;;18.55;;
36931;SDS011;22847;42.654;23.370;2023-11-22T02:30:13;34.55;;;18.83;;
36931;SDS011;22847;42.654;23.370;2023-11-22T02:32:39;32.22;;;17.58;;
36931;SDS011;22847;42.654;23.370;2023-11-22T02:35:04;35.45;;;18.13;;
36931;SDS011;22847;42.654;23.370;2023-11-22T02:37:32;33.13;;;17.40;;
36931;SDS011;22847;42.654;23.370;2023-11-22T02:40:05;31.58;;;17.45;;
36931;SDS011;22847;42.654;23.370;2023-11-22T02:42:46;32.13;;;18.02;;
36931;SDS011;22847;42.654;23.370;2023-11-22T02:45:18;40.83;;;19.42;;
36931;SDS011;22847;42.654;23.370;2023-11-22T02:47:45;44.80;;;19.50;;
36931;SDS011;22847;42.654;23.370;2023-11-22T02:50:14;39.13;;;20.05;;
36931;SDS011;22847;42.654;23.370;2023-11-22T02:52:40;33.10;;;18.83;;
36931;SDS011;22847;42.654;23.370;2023-11-22T02:55:07;37.78;;;19.23;;
36931;SDS011;22847;42.654;23.370;2023-11-22T02:57:34;33.95;;;18.58;;
36931;SDS011;22847;42.654;23.370;2023-11-22T03:00:01;40.80;;;18.88;;
36931;SDS011;22847;42.654;23.370;2023-11-22T03:02:29;31.45;;;18.38;;
36931;SDS011;22847;42.654;23.370;2023-11-22T03:04:57;31.23;;;17.50;;
36931;SDS011;22847;42.654;23.370;2023-11-22T03:07:23;41.55;;;19.20;;
36931;SDS011;22847;42.654;23.370;2023-11-22T03:09:49;39.88;;;20.02;;
36931;SDS011;22847;42.654;23.370;2023-11-22T03:12:15;34.92;;;19.67;;
36931;SDS011;22847;42.654;23.370;2023-11-22T03:14:41;35.40;;;18.52;;
36931;SDS011;22847;42.654;23.370;2023-11-22T03:17:06;37.05;;;18.98;;
36931;SDS011;22847;42.654;23.370;2023-11-22T03:19:33;41.42;;;18.88;;
36931;SDS011;22847;42.654;23.370;2023-11-22T03:21:59;32.78;;;18.00;;
36931;SDS011;22847;42.654;23.370;2023-11-22T03:24:25;34.55;;;17.73;;
36931;SDS011;22847;42.654;23.370;2023-11-22T03:26:50;35.88;;;16.73;;
36931;SDS011;22847;42.654;23.370;2023-11-22T03:29:17;27.98;;;16.20;;
36931;SDS011;22847;42.654;23.370;2023-11-22T03:31:43;33.88;;;16.85;;
36931;SDS011;22847;42.654;23.370;2023-11-22T03:34:09;32.38;;;16.10;;
36931;SDS011;22847;42.654;23.370;2023-11-22T03:36:34;30.83;;;16.60;;
36931;SDS011;22847;42.654;23.370;2023-11-22T03:39:00;30.88;;;15.73;;
36931;SDS011;22847;42.654;23.370;2023-11-22T03:41:25;30.23;;;16.00;;
36931;SDS011;22847;42.654;23.370;2023-11-22T03:43:51;28.13;;;16.55;;
36931;SDS011;22847;42.654;23.370;2023-11-22T03:46:16;29.83;;;15.48;;
36931;SDS011;22847;42.654;23.370;2023-11-22T03:48:42;29.30;;;15.88;;
36931;SDS011;22847;42.654;23.370;2023-11-22T03:51:07;28.20;;;16.33;;
36931;SDS011;22847;42.654;23.370;2023-11-22T03:53:33;30.02;;;15.30;;
36931;SDS011;22847;42.654;23.370;2023-11-22T03:55:58;26.65;;;15.13;;
36931;SDS011;22847;42.654;23.370;2023-11-22T03:58:24;30.48;;;15.18;;
36931;SDS011;22847;42.654;23.370;2023-11-22T04:00:49;28.52;;;15.88;;
36931;SDS011;22847;42.654;23.370;2023-11-22T04:03:17;30.02;;;15.73;;
36931;SDS011;22847;42.654;23.370;2023-11-22T04:05:43;28.08;;;15.70;;
36931;SDS011;22847;42.654;23.370;2023-11-22T04:08:09;25.08;;;14.88;;
36931;SDS011;22847;42.654;23.370;2023-11-22T04:10:35;33.97;;;16.08;;
36931;SDS011;22847;42.654;23.370;2023-11-22T04:13:00;33.45;;;14.90;;
36931;SDS011;22847;42.654;23.370;2023-11-22T04:15:26;34.08;;;17.75;;
36931;SDS011;22847;42.654;23.370;2023-11-22T04:17:52;32.25;;;15.63;;
36931;SDS011;22847;42.654;23.370;2023-11-22T04:20:19;31.05;;;16.50;;
36931;SDS011;22847;42.654;23.370;2023-11-22T04:22:45;29.50;;;15.40;;
36931;SDS011;22847;42.654;23.370;2023-11-22T04:25:11;26.88;;;15.50;;
36931;SDS011;22847;42.654;23.370;2023-11-22T04:27:40;28.45;;;15.75;;
36931;SDS011;22847;42.654;23.370;2023-11-22T04:30:06;26.88;;;15.30;;
36931;SDS011;22847;42.654;23.370;2023-11-22T04:32:34;28.17;;;15.88;;
36931;SDS011;22847;42.654;23.370;2023-11-22T04:35:01;30.25;;;15.50;;
36931;SDS011;22847;42.654;23.370;2023-11-22T04:37:29;29.15;;;16.42;;
36931;SDS011;22847;42.654;23.370;2023-11-22T04:39:56;31.52;;;16.33;;
36931;SDS011;22847;42.654;23.370;2023-11-22T04:42:22;35.88;;;17.27;;
36931;SDS011;22847;42.654;23.370;2023-11-22T04:44:47;30.33;;;16.13;;
36931;SDS011;22847;42.654;23.370;2023-11-22T04:47:13;35.55;;;16.60;;
36931;SDS011;22847;42.654;23.370;2023-11-22T04:49:39;30.67;;;16.55;;
36931;SDS011;22847;42.654;23.370;2023-11-22T04:52:04;31.30;;;15.82;;
36931;SDS011;22847;42.654;23.370;2023-11-22T04:54:30;26.25;;;15.63;;
36931;SDS011;22847;42.654;23.370;2023-11-22T04:56:56;32.75;;;16.77;;
36931;SDS011;22847;42.654;23.370;2023-11-22T04:59:22;28.75;;;16.50;;
36931;SDS011;22847;42.654;23.370;2023-11-22T05:01:48;30.00;;;17.23;;
36931;SDS011;22847;42.654;23.370;2023-11-22T05:04:14;28.02;;;18.27;;
36931;SDS011;22847;42.654;23.370;2023-11-22T05:06:39;30.25;;;16.90;;
36931;SDS011;22847;42.654;23.370;2023-11-22T05:09:05;34.58;;;17.75;;
36931;SDS011;22847;42.654;23.370;2023-11-22T05:11:31;33.58;;;17.42;;
36931;SDS011;22847;42.654;23.370;2023-11-22T05:13:57;34.33;;;17.17;;
36931;SDS011;22847;42.654;23.370;2023-11-22T05:16:22;35.78;;;16.90;;
36931;SDS011;22847;42.654;23.370;2023-11-22T05:18:49;28.58;;;15.73;;
36931;SDS011;22847;42.654;23.370;2023-11-22T05:21:15;37.80;;;15.75;;
36931;SDS011;22847;42.654;23.370;2023-11-22T05:23:40;26.30;;;14.77;;
36931;SDS011;22847;42.654;23.370;2023-11-22T05:26:06;30.15;;;15.85;;
36931;SDS011;22847;42.654;23.370;2023-11-22T05:28:31;33.60;;;16.73;;
36931;SDS011;22847;42.654;23.370;2023-11-22T05:30:57;30.90;;;16.27;;
36931;SDS011;22847;42.654;23.370;2023-11-22T05:33:22;26.85;;;16.17;;
36931;SDS011;22847;42.654;23.370;2023-11-22T05:35:49;31.13;;;16.02;;
36931;SDS011;22847;42.654;23.370;2023-11-22T05:38:14;30.13;;;16.25;;
36931;SDS011;22847;42.654;23.370;2023-11-22T05:40:40;29.95;;;16.50;;
36931;SDS011;22847;42.654;23.370;2023-11-22T05:43:07;32.78;;;17.25;;
36931;SDS011;22847;42.654;23.370;2023-11-22T05:45:33;26.55;;;16.40;;
36931;SDS011;22847;42.654;23.370;2023-11-22T05:48:00;28.52;;;16.00;;
36931;SDS011;22847;42.654;23.370;2023-11-22T05:50:25;33.05;;;18.58;;
36931;SDS011;22847;42.654;23.370;2023-11-22T05:52:51;32.83;;;17.40;;
36931;SDS011;22847;42.654;23.370;2023-11-22T05:55:17;31.55;;;17.42;;
36931;SDS011;22847;42.654;23.370;2023-11-22T05:57:43;36.17;;;20.50;;
36931;SDS011;22847;42.654;23.370;2023-11-22T06:00:09;31.73;;;19.17;;
36931;SDS011;22847;42.654;23.370;2023-11-22T06:02:35;37.05;;;18.98;;
36931;SDS011;22847;42.654;23.370;2023-11-22T06:05:04;41.03;;;20.38;;
36931;SDS011;22847;42.654;23.370;2023-11-22T06:07:30;33.58;;;20.02;;
36931;SDS011;22847;42.654;23.370;2023-11-22T06:09:56;36.63;;;19.23;;
36931;SDS011;22847;42.654;23.370;2023-11-22T06:12:22;36.53;;;19.52;;
36931;SDS011;22847;42.654;23.370;2023-11-22T06:14:48;33.97;;;19.02;;
36931;SDS011;22847;42.654;23.370;2023-11-22T06:17:13;38.33;;;19.70;;
36931;SDS011;22847;42.654;23.370;2023-11-22T06:19:39;41.65;;;19.60;;
36931;SDS011;22847;42.654;23.370;2023-11-22T06:22:06;41.67;;;21.02;;
36931;SDS011;22847;42.654;23.370;2023-11-22T06:24:32;37.25;;;19.23;;
36931;SDS011;22847;42.654;23.370;2023-11-22T06:26:58;35.67;;;20.15;;
36931;SDS011;22847;42.654;23.370;2023-11-22T06:29:24;39.25;;;19.20;;
36931;SDS011;22847;42.654;23.370;2023-11-22T06:31:49;35.22;;;19.80;;
36931;SDS011;22847;42.654;23.370;2023-11-22T06:34:15;35.15;;;19.98;;
36931;SDS011;22847;42.654;23.370;2023-11-22T06:36:40;37.63;;;20.50;;
36931;SDS011;22847;42.654;23.370;2023-11-22T06:39:06;39.10;;;20.83;;
36931;SDS011;22847;42.654;23.370;2023-11-22T06:41:34;38.53;;;21.00;;
36931;SDS011;22847;42.654;23.370;2023-11-22T06:43:59;34.15;;;19.25;;
36931;SDS011;22847;42.654;23.370;2023-11-22T06:46:25;33.20;;;18.30;;
36931;SDS011;22847;42.654;23.370;2023-11-22T06:48:50;36.22;;;19.48;;
36931;SDS011;22847;42.654;23.370;2023-11-22T06:51:16;32.08;;;19.17;;
36931;SDS011;22847;42.654;23.370;2023-11-22T06:53:43;33.80;;;19.30;;
36931;SDS011;22847;42.654;23.370;2023-11-22T06:56:10;38.55;;;19.27;;
36931;SDS011;22847;42.654;23.370;2023-11-22T06:58:36;37.72;;;19.27;;
36931;SDS011;22847;42.654;23.370;2023-11-22T07:01:01;40.05;;;20.63;;
36931;SDS011;22847;42.654;23.370;2023-11-22T07:03:27;46.97;;;24.05;;
36931;SDS011;22847;42.654;23.370;2023-11-22T07:05:52;40.25;;;20.17;;
36931;SDS011;22847;42.654;23.370;2023-11-22T07:08:17;38.10;;;19.13;;
36931;SDS011;22847;42.654;23.370;2023-11-22T07:10:43;39.33;;;18.52;;
36931;SDS011;22847;42.654;23.370;2023-11-22T07:13:10;31.42;;;17.90;;
36931;SDS011;22847;42.654;23.370;2023-11-22T07:15:38;31.83;;;16.75;;
36931;SDS011;22847;42.654;23.370;2023-11-22T07:18:03;29.10;;;17.33;;
36931;SDS011;22847;42.654;23.370;2023-11-22T07:20:30;28.60;;;17.00;;
36931;SDS011;22847;42.654;23.370;2023-11-22T07:22:56;33.92;;;18.63;;
36931;SDS011;22847;42.654;23.370;2023-11-22T07:25:22;31.00;;;18.08;;
36931;SDS011;22847;42.654;23.370;2023-11-22T07:27:50;33.47;;;17.70;;
36931;SDS011;22847;42.654;23.370;2023-11-22T07:30:16;30.13;;;17.90;;
36931;SDS011;22847;42.654;23.370;2023-11-22T07:32:45;33.78;;;19.00;;
36931;SDS011;22847;42.654;23.370;2023-11-22T07:35:11;35.53;;;17.83;;
36931;SDS011;22847;42.654;23.370;2023-11-22T07:37:37;41.10;;;16.40;;
36931;SDS011;22847;42.654;23.370;2023-11-22T07:40:09;36.05;;;17.33;;
36931;SDS011;22847;42.654;23.370;2023-11-22T07:42:38;32.97;;;17.23;;
36931;SDS011;22847;42.654;23.370;2023-11-22T07:45:04;37.17;;;17.88;;
36931;SDS011;22847;42.654;23.370;2023-11-22T07:47:30;33.33;;;18.02;;
36931;SDS011;22847;42.654;23.370;2023-11-22T07:49:56;32.45;;;19.95;;
36931;SDS011;22847;42.654;23.370;2023-11-22T07:52:22;33.38;;;18.52;;
36931;SDS011;22847;42.654;23.370;2023-11-22T07:54:52;35.25;;;19.17;;
36931;SDS011;22847;42.654;23.370;2023-11-22T07:57:17;33.88;;;19.02;;
36931;SDS011;22847;42.654;23.370;2023-11-22T07:59:45;37.08;;;19.02;;
36931;SDS011;22847;42.654;23.370;2023-11-22T08:02:12;32.65;;;17.67;;
36931;SDS011;22847;42.654;23.370;2023-11-22T08:04:38;29.92;;;17.75;;
36931;SDS011;22847;42.654;23.370;2023-11-22T08:07:03;32.08;;;17.27;;
36931;SDS011;22847;42.654;23.370;2023-11-22T08:09:29;33.38;;;18.02;;
36931;SDS011;22847;42.654;23.370;2023-11-22T08:11:58;32.83;;;17.83;;
36931;SDS011;22847;42.654;23.370;2023-11-22T08:14:27;32.65;;;17.55;;
36931;SDS011;22847;42.654;23.370;2023-11-22T08:16:53;34.17;;;17.80;;
36931;SDS011;22847;42.654;23.370;2023-11-22T08:19:19;39.92;;;18.75;;
36931;SDS011;22847;42.654;23.370;2023-11-22T08:21:44;29.67;;;18.35;;
36931;SDS011;22847;42.654;23.370;2023-11-22T08:24:10;31.67;;;16.42;;
36931;SDS011;22847;42.654;23.370;2023-11-22T08:26:38;27.40;;;15.48;;
36931;SDS011;22847;42.654;23.370;2023-11-22T08:29:04;26.58;;;16.38;;
36931;SDS011;22847;42.654;23.370;2023-11-22T08:31:30;30.85;;;18.83;;
36931;SDS011;22847;42.654;23.370;2023-11-22T08:33:55;35.08;;;20.52;;
36931;SDS011;22847;42.654;23.370;2023-11-22T08:36:21;37.22;;;20.27;;
36931;SDS011;22847;42.654;23.370;2023-11-22T08:38:48;40.42;;;23.38;;
36931;SDS011;22847;42.654;23.370;2023-11-22T08:41:14;36.85;;;23.65;;
36931;SDS011;22847;42.654;23.370;2023-11-22T08:43:40;40.85;;;24.67;;
36931;SDS011;22847;42.654;23.370;2023-11-22T08:46:06;35.25;;;21.33;;
36931;SDS011;22847;42.654;23.370;2023-11-22T08:48:33;37.70;;;21.70;;
36931;SDS011;22847;42.654;23.370;2023-11-22T08:50:59;32.00;;;19.55;;
36931;SDS011;22847;42.654;23.370;2023-11-22T08:53:25;33.22;;;18.05;;
36931;SDS011;22847;42.654;23.370;2023-11-22T08:55:51;30.38;;;17.40;;
36931;SDS011;22847;42.654;23.370;2023-11-22T08:58:19;26.30;;;15.88;;
36931;SDS011;22847;42.654;23.370;2023-11-22T09:00:46;30.58;;;18.23;;
36931;SDS011;22847;42.654;23.370;2023-11-22T09:03:12;29.70;;;16.88;;
36931;SDS011;22847;42.654;23.370;2023-11-22T09:05:41;33.85;;;18.95;;
36931;SDS011;22847;42.654;23.370;2023-11-22T09:08:07;32.08;;;19.63;;
36931;SDS011;22847;42.654;23.370;2023-11-22T09:10:38;40.13;;;18.70;;
36931;SDS011;22847;42.654;23.370;2023-11-22T09:13:04;37.67;;;18.17;;
36931;SDS011;22847;42.654;23.370;2023-11-22T09:15:31;30.50;;;18.90;;
36931;SDS011;22847;42.654;23.370;2023-11-22T09:17:58;30.23;;;17.85;;
36931;SDS011;22847;42.654;23.370;2023-11-22T09:20:24;29.25;;;16.67;;
36931;SDS011;22847;42.654;23.370;2023-11-22T09:22:50;33.20;;;17.73;;
36931;SDS011;22847;42.654;23.370;2023-11-22T09:25:18;31.20;;;16.63;;
36931;SDS011;22847;42.654;23.370;2023-11-22T09:27:46;28.80;;;16.95;;
36931;SDS011;22847;42.654;23.370;2023-11-22T09:30:16;30.23;;;17.20;;
36931;SDS011;22847;42.654;23.370;2023-11-22T09:35:31;47.78;;;22.83;;
36931;SDS011;22847;42.654;23.370;2023-11-22T09:37:57;62.80;;;26.15;;
36931;SDS011;22847;42.654;23.370;2023-11-22T09:40:24;72.13;;;30.42;;
36931;SDS011;22847;42.654;23.370;2023-11-22T09:42:52;47.25;;;24.58;;
36931;SDS011;22847;42.654;23.370;2023-11-22T09:45:19;37.03;;;19.40;;
36931;SDS011;22847;42.654;23.370;2023-11-22T09:47:45;32.67;;;18.63;;
36931;SDS011;22847;42.654;23.370;2023-11-22T09:50:13;47.88;;;23.42;;
36931;SDS011;22847;42.654;23.370;2023-11-22T09:52:50;37.25;;;19.42;;
36931;SDS011;22847;42.654;23.370;2023-11-22T09:55:19;46.53;;;23.38;;
36931;SDS011;22847;42.654;23.370;2023-11-22T09:57:47;41.40;;;22.00;;
36931;SDS011;22847;42.654;23.370;2023-11-22T10:00:32;39.88;;;21.83;;
36931;SDS011;22847;42.654;23.370;2023-11-22T10:02:57;41.45;;;22.17;;
36931;SDS011;22847;42.654;23.370;2023-11-22T10:05:24;37.92;;;20.83;;
36931;SDS011;22847;42.654;23.370;2023-11-22T10:07:49;31.65;;;19.05;;
36931;SDS011;22847;42.654;23.370;2023-11-22T10:10:16;35.88;;;21.40;;
36931;SDS011;22847;42.654;23.370;2023-11-22T10:12:45;35.58;;;19.40;;
36931;SDS011;22847;42.654;23.370;2023-11-22T10:15:11;35.20;;;19.90;;
36931;SDS011;22847;42.654;23.370;2023-11-22T10:17:37;40.30;;;20.60;;
36931;SDS011;22847;42.654;23.370;2023-11-22T10:20:03;35.42;;;20.73;;
36931;SDS011;22847;42.654;23.370;2023-11-22T10:22:29;36.22;;;21.73;;
36931;SDS011;22847;42.654;23.370;2023-11-22T10:24:58;42.80;;;20.88;;
36931;SDS011;22847;42.654;23.370;2023-11-22T10:27:26;39.42;;;20.83;;
36931;SDS011;22847;42.654;23.370;2023-11-22T10:29:51;37.60;;;21.77;;
36931;SDS011;22847;42.654;23.370;2023-11-22T10:32:17;35.03;;;20.13;;
36931;SDS011;22847;42.654;23.370;2023-11-22T10:34:42;34.20;;;20.25;;
36931;SDS011;22847;42.654;23.370;2023-11-22T10:37:08;43.70;;;21.52;;
36931;SDS011;22847;42.654;23.370;2023-11-22T10:39:34;41.15;;;20.70;;
36931;SDS011;22847;42.654;23.370;2023-11-22T10:42:00;38.70;;;19.73;;
36931;SDS011;22847;42.654;23.370;2023-11-22T10:44:31;37.70;;;21.92;;
36931;SDS011;22847;42.654;23.370;2023-11-22T10:46:59;40.45;;;21.45;;
36931;SDS011;22847;42.654;23.370;2023-11-22T10:49:25;34.55;;;20.30;;
36931;SDS011;22847;42.654;23.370;2023-11-22T10:51:51;41.03;;;20.08;;
36931;SDS011;22847;42.654;23.370;2023-11-22T10:54:19;36.88;;;20.10;;
36931;SDS011;22847;42.654;23.370;2023-11-22T10:56:49;37.95;;;21.20;;
36931;SDS011;22847;42.654;23.370;2023-11-22T10:59:20;36.15;;;21.42;;
36931;SDS011;22847;42.654;23.370;2023-11-22T11:01:48;33.90;;;19.35;;
36931;SDS011;22847;42.654;23.370;2023-11-22T11:04:31;30.70;;;20.15;;
36931;SDS011;22847;42.654;23.370;2023-11-22T11:07:25;30.33;;;19.42;;
36931;SDS011;22847;42.654;23.370;2023-11-22T11:09:55;34.88;;;20.08;;
36931;SDS011;22847;42.654;23.370;2023-11-22T11:12:23;36.97;;;20.02;;
36931;SDS011;22847;42.654;23.370;2023-11-22T11:14:49;42.22;;;20.90;;
36931;SDS011;22847;42.654;23.370;2023-11-22T11:17:16;39.30;;;20.80;;
36931;SDS011;22847;42.654;23.370;2023-11-22T11:19:42;39.58;;;20.92;;
36931;SDS011;22847;42.654;23.370;2023-11-22T11:22:08;43.22;;;20.95;;
36931;SDS011;22847;42.654;23.370;2023-11-22T11:24:41;34.25;;;20.73;;
36931;SDS011;22847;42.654;23.370;2023-11-22T11:29:35;35.50;;;21.60;;
36931;SDS011;22847;42.654;23.370;2023-11-22T11:32:09;42.25;;;21.85;;
36931;SDS011;22847;42.654;23.370;2023-11-22T11:34:48;43.17;;;21.60;;
36931;SDS011;22847;42.654;23.370;2023-11-22T11:37:19;36.95;;;21.02;;
36931;SDS011;22847;42.654;23.370;2023-11-22T11:39:45;42.05;;;21.98;;
36931;SDS011;22847;42.654;23.370;2023-11-22T11:42:11;55.58;;;22.20;;
36931;SDS011;22847;42.654;23.370;2023-11-22T11:44:45;38.83;;;20.83;;
36931;SDS011;22847;42.654;23.370;2023-11-22T11:47:17;37.58;;;21.42;;
36931;SDS011;22847;42.654;23.370;2023-11-22T11:49:42;36.83;;;22.27;;
36931;SDS011;22847;42.654;23.370;2023-11-22T11:52:08;35.97;;;20.73;;
36931;SDS011;22847;42.654;23.370;2023-11-22T11:54:33;40.45;;;21.58;;
36931;SDS011;22847;42.654;23.370;2023-11-22T11:57:00;39.15;;;20.73;;
36931;SDS011;22847;42.654;23.370;2023-11-22T11:59:26;37.28;;;21.88;;
36931;SDS011;22847;42.654;23.370;2023-11-22T12:01:55;33.33;;;21.55;;
36931;SDS011;22847;42.654;23.370;2023-11-22T12:04:24;38.33;;;21.50;;
36931;SDS011;22847;42.654;23.370;2023-11-22T12:06:49;40.05;;;22.15;;
36931;SDS011;22847;42.654;23.370;2023-11-22T12:09:24;41.38;;;21.17;;
36931;SDS011;22847;42.654;23.370;2023-11-22T12:11:50;36.00;;;20.35;;
36931;SDS011;22847;42.654;23.370;2023-11-22T12:14:22;39.85;;;20.92;;
36931;SDS011;22847;42.654;23.370;2023-11-22T12:16:51;32.53;;;20.80;;
36931;SDS011;22847;42.654;23.370;2023-11-22T12:19:28;36.08;;;20.75;;
36931;SDS011;22847;42.654;23.370;2023-11-22T12:21:56;33.83;;;21.52;;
36931;SDS011;22847;42.654;23.370;2023-11-22T12:24:22;37.50;;;20.88;;
36931;SDS011;22847;42.654;23.370;2023-11-22T12:26:48;34.70;;;21.10;;
36931;SDS011;22847;42.654;23.370;2023-11-22T12:29:15;35.17;;;19.08;;
36931;SDS011;22847;42.654;23.370;2023-11-22T12:31:48;32.50;;;18.95;;
36931;SDS011;22847;42.654;23.370;2023-11-22T12:34:17;29.77;;;17.65;;
36931;SDS011;22847;42.654;23.370;2023-11-22T12:36:43;29.55;;;16.95;;
36931;SDS011;22847;42.654;23.370;2023-11-22T12:39:10;29.08;;;18.50;;
36931;SDS011;22847;42.654;23.370;2023-11-22T12:41:48;30.80;;;17.88;;
36931;SDS011;22847;42.654;23.370;2023-11-22T12:44:18;29.08;;;16.27;;
36931;SDS011;22847;42.654;23.370;2023-11-22T12:46:47;30.88;;;17.00;;
36931;SDS011;22847;42.654;23.370;2023-11-22T12:49:24;25.15;;;16.25;;
36931;SDS011;22847;42.654;23.370;2023-11-22T12:51:50;27.70;;;16.55;;
36931;SDS011;22847;42.654;23.370;2023-11-22T12:54:17;29.23;;;16.35;;
36931;SDS011;22847;42.654;23.370;2023-11-22T12:56:45;34.53;;;17.23;;
36931;SDS011;22847;42.654;23.370;2023-11-22T12:59:10;32.20;;;16.20;;
36931;SDS011;22847;42.654;23.370;2023-11-22T13:01:36;28.17;;;16.65;;
36931;SDS011;22847;42.654;23.370;2023-11-22T13:04:01;28.52;;;15.70;;
36931;SDS011;22847;42.654;23.370;2023-11-22T13:06:27;25.73;;;15.02;;
36931;SDS011;22847;42.654;23.370;2023-11-22T13:08:52;29.25;;;15.48;;
36931;SDS011;22847;42.654;23.370;2023-11-22T13:11:18;28.33;;;16.65;;
36931;SDS011;22847;42.654;23.370;2023-11-22T13:13:44;26.67;;;16.95;;
36931;SDS011;22847;42.654;23.370;2023-11-22T13:16:11;33.40;;;17.85;;
36931;SDS011;22847;42.654;23.370;2023-11-22T13:18:37;30.10;;;18.70;;
36931;SDS011;22847;42.654;23.370;2023-11-22T13:21:03;34.38;;;19.05;;
36931;SDS011;22847;42.654;23.370;2023-11-22T13:23:29;34.55;;;19.38;;
36931;SDS011;22847;42.654;23.370;2023-11-22T13:25:54;36.50;;;21.35;;
36931;SDS011;22847;42.654;23.370;2023-11-22T13:28:20;37.95;;;20.95;;
36931;SDS011;22847;42.654;23.370;2023-11-22T13:30:45;36.08;;;20.17;;
36931;SDS011;22847;42.654;23.370;2023-11-22T13:33:11;34.33;;;21.05;;
36931;SDS011;22847;42.654;23.370;2023-11-22T13:35:39;37.97;;;20.98;;
36931;SDS011;22847;42.654;23.370;2023-11-22T13:38:05;35.88;;;20.98;;
36931;SDS011;22847;42.654;23.370;2023-11-22T13:40:35;35.67;;;20.90;;
36931;SDS011;22847;42.654;23.370;2023-11-22T13:43:04;37.50;;;21.33;;
36931;SDS011;22847;42.654;23.370;2023-11-22T13:45:30;37.47;;;19.80;;
36931;SDS011;22847;42.654;23.370;2023-11-22T13:47:55;38.35;;;20.63;;
36931;SDS011;22847;42.654;23.370;2023-11-22T13:50:31;33.67;;;19.40;;
36931;SDS011;22847;42.654;23.370;2023-11-22T13:52:57;35.53;;;19.73;;
36931;SDS011;22847;42.654;23.370;2023-11-22T13:55:24;37.47;;;20.92;;
36931;SDS011;22847;42.654;23.370;2023-11-22T14:00:16;32.65;;;19.80;;
36931;SDS011;22847;42.654;23.370;2023-11-22T14:02:54;39.33;;;21.05;;
36931;SDS011;22847;42.654;23.370;2023-11-22T14:05:21;41.83;;;21.52;;
36931;SDS011;22847;42.654;23.370;2023-11-22T14:07:47;49.92;;;23.15;;
36931;SDS011;22847;42.654;23.370;2023-11-22T14:10:14;43.40;;;20.88;;
36931;SDS011;22847;42.654;23.370;2023-11-22T14:12:41;45.45;;;22.58;;
36931;SDS011;22847;42.654;23.370;2023-11-22T14:15:08;43.42;;;22.10;;